createdAt,value
2023-01-10T00:01:56.379Z,-3.21
2023-01-10T00:04:26.375Z,-3.21
2023-01-10T00:06:54.262Z,-3.23
2023-01-10T00:09:22.432Z,-3.23
2023-01-10T00:12:08.942Z,-3.23
2023-01-10T00:14:37.566Z,-3.25
2023-01-10T00:17:05.669Z,-3.25
2023-01-10T00:19:33.741Z,-3.26
2023-01-10T00:22:05.547Z,-3.26
2023-01-10T00:24:36.007Z,-3.27
2023-01-10T00:27:03.902Z,-3.27
2023-01-10T00:29:31.730Z,-3.26
2023-01-10T00:32:01.360Z,-3.27
2023-01-10T00:34:31.037Z,-3.27
2023-01-10T00:36:58.705Z,-3.27
2023-01-10T00:39:27.573Z,-3.28
2023-01-10T00:42:14.228Z,-3.29
2023-01-10T00:44:42.501Z,-3.30
2023-01-10T00:47:10.759Z,-3.30
2023-01-10T00:49:41.567Z,-3.31
2023-01-10T00:52:09.345Z,-3.31
2023-01-10T00:54:40.361Z,-3.33
2023-01-10T00:57:08.439Z,-3.34
2023-01-10T00:59:36.113Z,-3.35
2023-01-10T01:02:04.384Z,-3.36
2023-01-10T01:04:34.211Z,-3.38
2023-01-10T01:07:02.643Z,-3.39
2023-01-10T01:09:30.513Z,-3.40
2023-01-10T01:11:58.671Z,-3.41
2023-01-10T01:14:26.432Z,-3.41
2023-01-10T01:16:55.228Z,-3.42
2023-01-10T01:19:28.130Z,-3.43
2023-01-10T01:21:56.314Z,-3.44
2023-01-10T01:24:24.653Z,-3.45
2023-01-10T01:26:54.910Z,-3.46
2023-01-10T01:29:26.239Z,-3.48
2023-01-10T01:31:57.854Z,-3.49
2023-01-10T01:34:25.526Z,-3.48
2023-01-10T01:36:58.015Z,-3.49
2023-01-10T01:39:25.878Z,-3.50
2023-01-10T01:42:00.110Z,-3.51
2023-01-10T01:44:32.811Z,-3.52
2023-01-10T01:47:13.958Z,-3.53
2023-01-10T01:49:43.010Z,-3.55
2023-01-10T01:52:14.452Z,-3.56
2023-01-10T01:54:42.166Z,-3.57
2023-01-10T01:57:12.528Z,-3.58
2023-01-10T01:59:42.084Z,-3.59
2023-01-10T02:02:15.757Z,-3.61
2023-01-10T02:04:54.558Z,-3.63
2023-01-10T02:07:22.351Z,-3.64
2023-01-10T02:09:58.553Z,-3.65
2023-01-10T02:12:26.242Z,-3.67
2023-01-10T02:14:54.606Z,-3.68
2023-01-10T02:17:22.438Z,-3.71
2023-01-10T02:19:52.620Z,-3.73
2023-01-10T02:22:35.121Z,-3.74
2023-01-10T02:25:12.265Z,-3.75
2023-01-10T02:27:56.265Z,-3.76
2023-01-10T02:30:38.864Z,-3.77
2023-01-10T02:33:10.807Z,-3.78
2023-01-10T02:36:18.891Z,-3.78
2023-01-10T02:39:02.193Z,-3.79
2023-01-10T02:41:36.299Z,-3.80
2023-01-10T02:44:12.532Z,-3.81
2023-01-10T02:46:40.453Z,-3.81
2023-01-10T02:49:08.389Z,-3.81
2023-01-10T02:51:36.746Z,-3.83
2023-01-10T02:54:19.400Z,-3.84
2023-01-10T02:57:09.466Z,-3.85
2023-01-10T02:59:47.244Z,-3.85
2023-01-10T03:02:41.290Z,-3.85
2023-01-10T03:05:52.522Z,-3.85
2023-01-10T03:08:40.455Z,-3.87
2023-01-10T03:11:09.324Z,-3.88
2023-01-10T03:13:43.234Z,-3.90
2023-01-10T03:16:14.059Z,-3.91
2023-01-10T03:19:07.549Z,-3.92
2023-01-10T03:21:36.010Z,-3.94
2023-01-10T03:24:07.654Z,-3.96
2023-01-10T03:27:03.640Z,-3.98
2023-01-10T03:29:43.754Z,-4.00
2023-01-10T03:32:12.078Z,-4.02
2023-01-10T03:34:39.797Z,-4.03
2023-01-10T03:37:14.309Z,-4.05
2023-01-10T03:40:00.058Z,-4.06
2023-01-10T03:43:09.121Z,-4.07
2023-01-10T03:45:42.974Z,-4.08
2023-01-10T03:48:11.150Z,-4.11
2023-01-10T03:50:39.022Z,-4.13
2023-01-10T03:53:06.849Z,-4.17
2023-01-10T03:55:35.134Z,-4.20
2023-01-10T03:58:02.984Z,-4.23
2023-01-10T04:00:31.631Z,-4.25
2023-01-10T04:02:59.452Z,-4.26
2023-01-10T04:05:27.325Z,-4.26
2023-01-10T04:07:54.892Z,-4.29
2023-01-10T04:10:25.267Z,-4.30
2023-01-10T04:12:53.029Z,-4.32
2023-01-10T04:15:20.697Z,-4.36
2023-01-10T04:17:48.878Z,-4.37
2023-01-10T04:20:17.054Z,-4.39
2023-01-10T04:22:49.526Z,-4.41
2023-01-10T04:25:17.343Z,-4.44
2023-01-10T04:27:45.239Z,-4.45
2023-01-10T04:30:13.054Z,-4.46
2023-01-10T04:32:40.722Z,-4.48
2023-01-10T04:35:09.152Z,-4.53
2023-01-10T04:37:37.637Z,-4.57
2023-01-10T04:40:06.430Z,-4.62
2023-01-10T04:42:37.583Z,-4.67
2023-01-10T04:45:05.903Z,-4.69
2023-01-10T04:47:33.902Z,-4.71
2023-01-10T04:50:01.750Z,-4.72
2023-01-10T04:52:30.072Z,-4.74
2023-01-10T04:54:57.679Z,-4.75
2023-01-10T04:57:28.537Z,-4.78
2023-01-10T04:59:56.143Z,-4.84
2023-01-10T05:02:23.896Z,-4.90
2023-01-10T05:04:51.642Z,-4.96
2023-01-10T05:07:19.528Z,-5.04
2023-01-10T05:09:47.366Z,-5.10
2023-01-10T05:12:15.873Z,-5.15
2023-01-10T05:14:43.614Z,-5.22
2023-01-10T05:17:11.538Z,-5.29
2023-01-10T05:19:39.332Z,-5.34
2023-01-10T05:22:06.983Z,-5.38
2023-01-10T05:24:35.370Z,-5.42
2023-01-10T05:27:03.748Z,-5.45
2023-01-10T05:29:33.129Z,-5.50
2023-01-10T05:32:01.197Z,-5.55
2023-01-10T05:34:29.399Z,-5.62
2023-01-10T05:36:57.648Z,-5.72
2023-01-10T05:39:25.626Z,-5.84
2023-01-10T05:41:53.509Z,-5.96
2023-01-10T05:44:21.739Z,-6.06
2023-01-10T05:46:49.640Z,-6.18
2023-01-10T05:49:17.415Z,-6.30
2023-01-10T05:51:45.187Z,-6.42
2023-01-10T05:54:12.890Z,-6.55
2023-01-10T05:56:40.549Z,-6.67
2023-01-10T05:59:20.167Z,-6.78
2023-01-10T06:01:55.550Z,-6.88
2023-01-10T06:04:23.701Z,-6.96
2023-01-10T06:06:51.808Z,-7.04
2023-01-10T06:09:19.789Z,-7.11
2023-01-10T06:11:47.783Z,-7.15
2023-01-10T06:14:19.074Z,-7.18
2023-01-10T06:16:47.025Z,-7.22
2023-01-10T06:19:15.173Z,-7.25
2023-01-10T06:21:42.976Z,-7.27
2023-01-10T06:24:10.855Z,-7.29
2023-01-10T06:26:38.530Z,-7.30
2023-01-10T06:29:06.172Z,-7.31
2023-01-10T06:31:33.918Z,-7.31
2023-01-10T06:34:03.229Z,-7.30
2023-01-10T06:36:31.504Z,-7.32
2023-01-10T06:38:59.014Z,-7.34
2023-01-10T06:41:27.528Z,-7.35
2023-01-10T06:43:55.107Z,-7.37
2023-01-10T06:46:22.675Z,-7.37
2023-01-10T06:48:50.448Z,-7.36
2023-01-10T06:51:20.148Z,-7.35
2023-01-10T06:53:48.039Z,-7.33
2023-01-10T06:56:20.024Z,-7.30
2023-01-10T06:58:49.289Z,-7.28
2023-01-10T07:01:19.052Z,-7.25
2023-01-10T07:03:47.390Z,-7.23
2023-01-10T07:06:15.184Z,-7.20
2023-01-10T07:08:45.016Z,-7.19
2023-01-10T07:11:14.242Z,-7.17
2023-01-10T07:13:42.089Z,-7.15
2023-01-10T07:16:11.570Z,-7.13
2023-01-10T07:18:41.919Z,-7.11
2023-01-10T07:21:09.942Z,-7.11
2023-01-10T07:23:37.841Z,-7.08
2023-01-10T07:26:10.190Z,-7.05
2023-01-10T07:28:38.349Z,-7.02
2023-01-10T07:31:06.251Z,-7.00
2023-01-10T07:33:34.066Z,-7.00
2023-01-10T07:36:02.808Z,-7.02
2023-01-10T07:38:30.748Z,-7.02
2023-01-10T07:40:58.478Z,-6.99
2023-01-10T07:43:26.218Z,-6.94
2023-01-10T07:45:53.862Z,-6.90
2023-01-10T07:48:21.801Z,-6.87
2023-01-10T07:50:49.421Z,-6.84
2023-01-10T07:53:16.936Z,-6.82
2023-01-10T07:55:45.961Z,-6.78
2023-01-10T07:58:15.707Z,-6.74
2023-01-10T08:00:43.521Z,-6.70
2023-01-10T08:03:11.835Z,-6.68
2023-01-10T08:05:39.623Z,-6.67
2023-01-10T08:08:08.869Z,-6.64
2023-01-10T08:10:37.177Z,-6.63
2023-01-10T08:13:17.814Z,-6.63
2023-01-10T08:15:49.976Z,-6.65
2023-01-10T08:18:18.769Z,-6.64
2023-01-10T08:20:49.252Z,-6.61
2023-01-10T08:23:17.597Z,-6.55
2023-01-10T08:25:45.896Z,-6.50
2023-01-10T08:28:13.537Z,-6.45
2023-01-10T08:30:41.563Z,-6.41
2023-01-10T08:33:10.679Z,-6.36
2023-01-10T08:35:42.791Z,-6.32
2023-01-10T08:38:11.195Z,-6.29
2023-01-10T08:40:38.788Z,-6.25
2023-01-10T08:43:07.958Z,-6.22
2023-01-10T08:45:37.256Z,-6.18
2023-01-10T08:48:05.577Z,-6.14
2023-01-10T08:50:35.109Z,-6.14
2023-01-10T08:53:03.973Z,-6.12
2023-01-10T08:55:34.984Z,-6.10
2023-01-10T08:58:02.752Z,-6.04
2023-01-10T09:00:30.775Z,-5.99
2023-01-10T09:02:58.417Z,-5.93
2023-01-10T09:05:31.460Z,-5.90
2023-01-10T09:08:00.602Z,-5.88
2023-01-10T09:10:29.057Z,-5.88
2023-01-10T09:13:01.355Z,-5.85
2023-01-10T09:15:30.975Z,-5.80
2023-01-10T09:18:00.541Z,-5.77
2023-01-10T09:20:28.856Z,-5.73
2023-01-10T09:22:57.277Z,-5.72
2023-01-10T09:25:25.318Z,-5.71
2023-01-10T09:27:57.842Z,-5.68
2023-01-10T09:30:26.308Z,-5.66
2023-01-10T09:32:54.086Z,-5.68
2023-01-10T09:35:22.540Z,-5.67
2023-01-10T09:37:50.439Z,-5.69
2023-01-10T09:40:20.816Z,-5.72
2023-01-10T09:43:16.696Z,-5.73
2023-01-10T09:46:19.821Z,-5.69
2023-01-10T09:48:56.098Z,-5.65
2023-01-10T09:51:48.760Z,-5.58
2023-01-10T09:54:27.363Z,-5.55
2023-01-10T09:56:55.414Z,-5.50
2023-01-10T09:59:24.495Z,-5.43
2023-01-10T10:01:55.385Z,-5.36
2023-01-10T10:04:37.150Z,-5.29
2023-01-10T10:07:05.590Z,-5.19
2023-01-10T10:09:34.103Z,-5.10
2023-01-10T10:12:19.658Z,-4.99
2023-01-10T10:15:03.838Z,-4.86
2023-01-10T10:17:57.829Z,-4.80
2023-01-10T10:20:33.173Z,-4.72
2023-01-10T10:23:11.299Z,-4.67
2023-01-10T10:26:02.620Z,-4.62
2023-01-10T10:29:07.418Z,-4.57
2023-01-10T10:32:00.653Z,-4.55
2023-01-10T10:34:38.359Z,-4.52
2023-01-10T10:37:21.251Z,-4.44
2023-01-10T10:39:56.627Z,-4.39
2023-01-10T10:42:33.239Z,-4.39
2023-01-10T10:45:31.422Z,-4.43
2023-01-10T10:48:01.409Z,-4.49
2023-01-10T10:50:35.935Z,-4.55
2023-01-10T10:53:04.033Z,-4.58
2023-01-10T10:55:34.517Z,-4.62
2023-01-10T10:58:05.939Z,-4.64
2023-01-10T11:00:33.811Z,-4.63
2023-01-10T11:03:25.956Z,-4.64
2023-01-10T11:05:54.291Z,-4.65
2023-01-10T11:08:23.416Z,-4.62
2023-01-10T11:10:57.373Z,-4.63
2023-01-10T11:13:34.532Z,-4.62
2023-01-10T11:16:05.249Z,-4.60
2023-01-10T11:18:33.339Z,-4.58
2023-01-10T11:21:13.590Z,-4.55
2023-01-10T11:23:52.972Z,-4.48
2023-01-10T11:26:25.098Z,-4.41
2023-01-10T11:28:53.788Z,-4.31
2023-01-10T11:31:30.515Z,-4.24
2023-01-10T11:33:58.183Z,-4.21
2023-01-10T11:36:25.828Z,-4.19
2023-01-10T11:39:03.906Z,-4.15
2023-01-10T11:41:34.031Z,-4.09
2023-01-10T11:44:21.731Z,-4.04
2023-01-10T11:46:49.838Z,-4.01
2023-01-10T11:49:31.237Z,-3.99
2023-01-10T11:52:25.602Z,-3.93
2023-01-10T11:54:59.961Z,-3.88
2023-01-10T11:57:31.655Z,-3.86
2023-01-10T12:00:03.576Z,-3.85
2023-01-10T12:02:42.796Z,-3.87
2023-01-10T12:05:18.600Z,-3.91
2023-01-10T12:08:10.407Z,-3.95
2023-01-10T12:10:39.572Z,-4.00
2023-01-10T12:13:15.174Z,-4.03
2023-01-10T12:15:43.023Z,-4.07
2023-01-10T12:18:10.753Z,-4.11
2023-01-10T12:20:49.604Z,-4.15
2023-01-10T12:23:19.318Z,-4.17
2023-01-10T12:25:46.927Z,-4.20
2023-01-10T12:28:28.841Z,-4.21
2023-01-10T12:30:57.041Z,-4.23
2023-01-10T12:33:28.290Z,-4.23
2023-01-10T12:36:21.771Z,-4.24
2023-01-10T12:39:11.299Z,-4.28
2023-01-10T12:42:01.136Z,-4.30
2023-01-10T12:44:41.812Z,-4.30
2023-01-10T12:47:34.238Z,-4.30
2023-01-10T12:50:16.931Z,-4.28
2023-01-10T12:53:09.729Z,-4.25
2023-01-10T12:55:41.290Z,-4.21
2023-01-10T12:58:18.090Z,-4.16
2023-01-10T13:00:48.476Z,-4.11
2023-01-10T13:03:21.919Z,-4.09
2023-01-10T13:05:52.013Z,-4.07
2023-01-10T13:08:26.551Z,-4.05
2023-01-10T13:10:56.206Z,-4.03
2023-01-10T13:13:43.886Z,-4.02
2023-01-10T13:16:30.232Z,-4.03
2023-01-10T13:19:21.586Z,-4.07
2023-01-10T13:21:49.212Z,-4.10
2023-01-10T13:24:22.415Z,-4.14
2023-01-10T13:26:54.378Z,-4.18
2023-01-10T13:29:43.612Z,-4.21
2023-01-10T13:32:32.414Z,-4.25
2023-01-10T13:35:18.242Z,-4.28
2023-01-10T13:37:52.369Z,-4.32
2023-01-10T13:40:28.023Z,-4.35
2023-01-10T13:43:36.661Z,-4.38
2023-01-10T13:46:16.885Z,-4.43
2023-01-10T13:48:51.297Z,-4.47
2023-01-10T13:51:20.293Z,-4.50
2023-01-10T13:53:52.957Z,-4.52
2023-01-10T13:56:40.592Z,-4.55
2023-01-10T13:59:45.870Z,-4.57
2023-01-10T14:02:31.566Z,-4.58
2023-01-10T14:05:29.709Z,-4.59
2023-01-10T14:07:58.042Z,-4.58
2023-01-10T14:10:31.885Z,-4.58
2023-01-10T14:13:09.970Z,-4.58
2023-01-10T14:15:42.195Z,-4.58
2023-01-10T14:18:38.925Z,-4.59
2023-01-10T14:21:08.376Z,-4.59
2023-01-10T14:23:43.426Z,-4.58
2023-01-10T14:26:37.784Z,-4.56
2023-01-10T14:29:12.521Z,-4.53
2023-01-10T14:31:44.350Z,-4.52
2023-01-10T14:34:27.199Z,-4.49
2023-01-10T14:37:16.085Z,-4.45
2023-01-10T14:39:43.726Z,-4.42
2023-01-10T14:42:14.313Z,-4.40
2023-01-10T14:44:44.212Z,-4.38
2023-01-10T14:47:30.447Z,-4.36
2023-01-10T14:50:01.773Z,-4.33
2023-01-10T14:52:29.740Z,-4.31
2023-01-10T14:55:16.219Z,-4.28
2023-01-10T14:58:01.201Z,-4.26
2023-01-10T15:00:30.834Z,-4.23
2023-01-10T15:03:01.375Z,-4.21
2023-01-10T15:05:31.688Z,-4.19
2023-01-10T15:08:30.083Z,-4.17
2023-01-10T15:11:06.458Z,-4.15
2023-01-10T15:13:38.877Z,-4.13
2023-01-10T15:16:07.676Z,-4.11
2023-01-10T15:18:44.696Z,-4.08
2023-01-10T15:21:12.983Z,-4.07
2023-01-10T15:23:42.228Z,-4.04
2023-01-10T15:26:16.134Z,-4.03
2023-01-10T15:29:05.586Z,-4.03
2023-01-10T15:31:37.218Z,-4.02
2023-01-10T15:34:08.727Z,-4.01
2023-01-10T15:36:36.445Z,-4.00
2023-01-10T15:39:04.100Z,-4.00
2023-01-10T15:41:35.352Z,-3.99
2023-01-10T15:44:45.662Z,-3.99
2023-01-10T15:47:39.776Z,-3.99
2023-01-10T15:50:31.973Z,-3.98
2023-01-10T15:53:01.596Z,-3.98
2023-01-10T15:55:49.193Z,-3.97
2023-01-10T15:58:34.976Z,-3.96
2023-01-10T16:01:04.449Z,-3.96
2023-01-10T16:03:43.930Z,-3.95
2023-01-10T16:06:38.584Z,-3.93
2023-01-10T16:09:08.172Z,-3.92
2023-01-10T16:11:57.218Z,-3.90
2023-01-10T16:14:24.830Z,-3.89
2023-01-10T16:16:53.118Z,-3.88
2023-01-10T16:19:21.990Z,-3.86
2023-01-10T16:21:53.764Z,-3.86
2023-01-10T16:24:23.125Z,-3.85
2023-01-10T16:26:52.273Z,-3.85
2023-01-10T16:29:22.604Z,-3.85
2023-01-10T16:31:51.874Z,-3.83
2023-01-10T16:34:20.597Z,-3.82
2023-01-10T16:36:48.299Z,-3.83
2023-01-10T16:39:20.791Z,-3.83
2023-01-10T16:42:07.664Z,-3.83
2023-01-10T16:44:37.158Z,-3.83
2023-01-10T16:47:07.066Z,-3.82
2023-01-10T16:49:35.292Z,-3.81
2023-01-10T16:52:03.373Z,-3.82
2023-01-10T22:30:00.041Z,-7.08
2023-01-10T22:32:28.001Z,-7.08
2023-01-10T22:34:55.674Z,-7.04
2023-01-10T22:37:23.294Z,-7.01
2023-01-10T22:39:50.908Z,-6.98
2023-01-10T22:42:18.690Z,-6.95
2023-01-10T22:44:47.973Z,-6.93
2023-01-10T22:47:15.511Z,-6.91
2023-01-10T22:49:42.983Z,-6.90
2023-01-10T22:52:11.872Z,-6.89
2023-01-10T22:54:39.493Z,-6.88
2023-01-10T22:57:06.959Z,-6.90
2023-01-10T22:59:44.895Z,-6.92
2023-01-10T23:02:12.336Z,-6.96
2023-01-10T23:04:40.240Z,-6.99
2023-01-10T23:07:07.665Z,-7.01
2023-01-10T23:09:35.115Z,-7.03
2023-01-10T23:12:02.541Z,-7.06
2023-01-10T23:14:30.019Z,-7.08
2023-01-10T23:16:57.502Z,-7.09
2023-01-10T23:19:24.896Z,-7.07
2023-01-10T23:21:52.417Z,-7.06
2023-01-10T23:24:19.913Z,-7.07
2023-01-10T23:26:47.302Z,-7.05
2023-01-10T23:29:14.988Z,-7.04
2023-01-10T23:31:42.634Z,-7.04
2023-01-10T23:34:10.124Z,-7.04
2023-01-10T23:36:37.737Z,-7.04
2023-01-10T23:39:05.165Z,-7.05
2023-01-10T23:41:32.621Z,-7.05
2023-01-10T23:44:00.293Z,-7.06
2023-01-10T23:46:27.721Z,-7.06
2023-01-10T23:48:55.128Z,-7.06
2023-01-10T23:51:22.670Z,-7.07
2023-01-10T23:53:50.145Z,-7.10
2023-01-10T23:56:17.691Z,-7.14
2023-01-10T23:58:45.287Z,-7.17
